createdAt,value
2022-11-05T00:01:52.349Z,74.79
2022-11-05T00:04:41.649Z,74.72
2022-11-05T00:07:36.264Z,74.59
2022-11-05T00:10:19.813Z,74.71
2022-11-05T00:13:05.619Z,74.47
2022-11-05T00:15:55.266Z,74.37
2022-11-05T00:18:27.105Z,73.96
2022-11-05T00:20:59.869Z,73.78
2022-11-05T00:23:49.568Z,73.57
2022-11-05T00:26:21.163Z,73.46
2022-11-05T00:28:52.886Z,73.15
2022-11-05T00:31:24.856Z,72.96
2022-11-05T00:33:56.527Z,73.08
2022-11-05T00:36:28.274Z,73.08
2022-11-05T00:38:59.954Z,73.02
2022-11-05T00:41:31.670Z,72.98
2022-11-05T00:44:21.149Z,72.85
2022-11-05T00:47:13.697Z,72.94
2022-11-05T00:49:45.336Z,72.74
2022-11-05T00:52:34.642Z,72.59
2022-11-05T00:55:07.528Z,72.54
2022-11-05T00:57:39.385Z,72.60
2022-11-05T01:00:13.777Z,72.41
2022-11-05T01:02:45.690Z,72.45
2022-11-05T01:05:18.045Z,72.47
2022-11-05T01:07:49.693Z,72.34
2022-11-05T01:10:21.753Z,72.25
2022-11-05T01:12:53.578Z,72.12
2022-11-05T01:15:25.852Z,72.11
2022-11-05T01:17:57.568Z,72.16
2022-11-05T01:20:29.350Z,72.16
2022-11-05T01:23:01.780Z,72.21
2022-11-05T01:25:33.569Z,72.12
2022-11-05T01:28:05.554Z,72.07
2022-11-05T01:30:38.021Z,71.97
2022-11-05T01:33:10.147Z,71.95
2022-11-05T01:35:42.975Z,71.91
2022-11-05T01:38:14.681Z,71.83
2022-11-05T01:40:47.122Z,71.77
2022-11-05T01:43:20.464Z,71.91
2022-11-05T01:45:56.639Z,71.86
2022-11-05T01:48:33.178Z,71.95
2022-11-05T01:51:09.744Z,72.03
2022-11-05T01:53:46.046Z,72.01
2022-11-05T01:56:23.454Z,71.89
2022-11-05T01:59:01.214Z,71.89
2022-11-05T02:01:33.192Z,71.83
2022-11-05T02:04:13.386Z,71.77
2022-11-05T02:06:47.202Z,71.86
2022-11-05T02:09:21.144Z,71.80
2022-11-05T02:11:53.643Z,71.83
2022-11-05T02:14:26.022Z,71.85
2022-11-05T02:17:05.001Z,71.85
2022-11-05T02:20:09.486Z,71.83
2022-11-05T02:23:19.453Z,71.76
2022-11-05T02:26:19.553Z,71.71
2022-11-05T02:29:21.996Z,71.86
2022-11-05T02:32:03.056Z,71.89
2022-11-05T02:34:43.599Z,71.75
2022-11-05T02:37:25.404Z,71.74
2022-11-05T02:40:06.517Z,71.75
2022-11-05T02:42:46.453Z,71.73
2022-11-05T02:45:32.138Z,71.51
2022-11-05T02:48:12.771Z,71.75
2022-11-05T02:50:52.364Z,71.70
2022-11-05T02:53:34.593Z,71.71
2022-11-05T02:56:11.222Z,71.72
2022-11-05T02:58:46.909Z,71.76
2022-11-05T03:01:18.946Z,71.69
2022-11-05T03:03:54.205Z,71.60
2022-11-05T03:06:54.481Z,71.63
2022-11-05T03:09:47.789Z,71.83
2022-11-05T03:12:28.222Z,71.67
2022-11-05T03:15:10.141Z,71.74
2022-11-05T03:17:54.078Z,71.73
2022-11-05T03:20:32.556Z,71.77
2022-11-05T03:23:10.843Z,71.68
2022-11-05T03:25:48.218Z,71.70
2022-11-05T03:28:24.111Z,71.81
2022-11-05T03:30:58.891Z,71.71
2022-11-05T03:33:34.538Z,71.87
2022-11-05T03:36:14.231Z,71.72
2022-11-05T03:38:50.025Z,71.80
2022-11-05T03:41:24.105Z,71.85
2022-11-05T03:44:00.137Z,71.76
2022-11-05T03:46:37.086Z,71.81
2022-11-05T03:49:12.750Z,71.74
2022-11-05T03:51:48.910Z,71.73
2022-11-05T03:54:20.810Z,71.60
2022-11-05T03:57:02.421Z,71.69
2022-11-05T03:59:40.754Z,71.60
2022-11-05T04:02:15.021Z,71.72
2022-11-05T04:04:47.657Z,71.89
2022-11-05T04:07:37.632Z,71.83
2022-11-05T04:10:27.965Z,72.11
2022-11-05T04:13:17.197Z,72.10
2022-11-05T04:16:07.107Z,72.34
2022-11-05T04:18:39.486Z,72.37
2022-11-05T04:21:29.953Z,72.48
2022-11-05T04:24:10.875Z,72.57
2022-11-05T04:26:45.389Z,72.78
2022-11-05T04:29:34.745Z,72.78
2022-11-05T04:32:06.849Z,72.81
2022-11-05T04:34:38.596Z,72.97
2022-11-05T04:37:10.194Z,73.05
2022-11-05T04:39:42.008Z,73.11
2022-11-05T04:42:13.706Z,73.26
2022-11-05T04:44:45.433Z,73.37
2022-11-05T04:47:17.246Z,73.42
2022-11-05T04:49:49.002Z,73.55
2022-11-05T04:52:20.602Z,73.62
2022-11-05T04:54:52.252Z,73.84
2022-11-05T04:57:24.002Z,73.95
2022-11-05T04:59:56.146Z,73.98
2022-11-05T05:02:28.100Z,74.08
2022-11-05T05:04:59.766Z,74.23
2022-11-05T05:07:31.586Z,74.32
2022-11-05T05:10:05.321Z,74.40
2022-11-05T05:12:37.728Z,74.45
2022-11-05T05:15:10.664Z,74.68
2022-11-05T05:17:42.434Z,74.78
2022-11-05T05:20:33.141Z,74.94
2022-11-05T05:23:05.432Z,75.01
2022-11-05T05:25:37.110Z,75.12
2022-11-05T05:28:08.843Z,74.98
2022-11-05T05:30:40.445Z,74.94
2022-11-05T05:33:12.485Z,75.04
2022-11-05T05:35:44.403Z,75.12
2022-11-05T05:38:16.099Z,75.09
2022-11-05T05:40:47.879Z,75.09
2022-11-05T05:43:21.999Z,75.14
2022-11-05T05:45:53.675Z,75.18
2022-11-05T05:48:25.733Z,75.20
2022-11-05T05:51:00.337Z,75.30
2022-11-05T05:53:33.208Z,75.28
2022-11-05T05:56:05.369Z,75.24
2022-11-05T05:58:40.278Z,75.18
2022-11-05T06:01:18.628Z,75.29
2022-11-05T06:03:51.474Z,75.30
2022-11-05T06:06:23.570Z,75.28
2022-11-05T06:08:56.073Z,75.44
2022-11-05T06:11:28.646Z,75.42
2022-11-05T06:14:00.465Z,75.36
2022-11-05T06:16:36.273Z,75.41
2022-11-05T06:19:08.489Z,75.41
2022-11-05T06:21:40.209Z,75.39
2022-11-05T06:24:13.246Z,75.35
2022-11-05T06:26:45.410Z,75.27
2022-11-05T06:29:17.066Z,75.34
2022-11-05T06:31:48.720Z,75.45
2022-11-05T06:34:20.465Z,75.31
2022-11-05T06:36:52.185Z,75.25
2022-11-05T06:39:24.116Z,75.36
2022-11-05T06:44:47.753Z,75.30
2022-11-05T06:47:20.174Z,75.24
2022-11-05T06:49:51.782Z,75.35
2022-11-05T06:52:23.789Z,75.29
2022-11-05T06:54:55.449Z,75.21
2022-11-05T06:57:27.173Z,75.33
2022-11-05T07:00:01.484Z,75.34
2022-11-05T07:02:35.133Z,75.41
2022-11-05T07:05:07.313Z,75.37
2022-11-05T07:07:39.080Z,75.31
2022-11-05T07:10:15.853Z,75.27
2022-11-05T07:12:47.538Z,75.28
2022-11-05T07:15:19.468Z,75.24
2022-11-05T07:17:51.137Z,75.20
2022-11-05T07:20:22.995Z,75.22
2022-11-05T07:23:02.198Z,75.22
2022-11-05T07:25:35.699Z,75.37
2022-11-05T07:28:08.402Z,75.41
2022-11-05T07:30:42.305Z,75.25
2022-11-05T07:33:12.848Z,75.33
2022-11-05T07:35:44.929Z,75.30
2022-11-05T07:38:17.167Z,75.36
2022-11-05T07:40:48.918Z,75.28
2022-11-05T07:43:20.523Z,75.31
2022-11-05T07:45:52.175Z,75.28
2022-11-05T07:48:24.000Z,75.38
2022-11-05T07:50:56.077Z,75.43
2022-11-05T07:53:27.822Z,75.34
2022-11-05T07:56:00.816Z,75.35
2022-11-05T07:58:33.364Z,75.24
2022-11-05T08:01:07.159Z,75.23
2022-11-05T08:03:39.186Z,75.23
2022-11-05T08:06:11.273Z,75.26
2022-11-05T08:08:42.849Z,75.24
2022-11-05T08:11:14.898Z,75.18
2022-11-05T08:13:46.730Z,75.33
2022-11-05T08:16:18.364Z,75.33
2022-11-05T08:18:50.114Z,75.37
2022-11-05T08:21:21.810Z,75.37
2022-11-05T08:23:53.481Z,75.33
2022-11-05T08:26:25.166Z,75.51
2022-11-05T08:28:56.821Z,75.32
2022-11-05T08:31:29.358Z,75.39
2022-11-05T08:34:02.677Z,75.54
2022-11-05T08:36:35.521Z,75.45
2022-11-05T08:39:07.329Z,75.57
2022-11-05T08:41:40.448Z,75.41
2022-11-05T08:44:12.338Z,75.53
2022-11-05T08:46:43.971Z,75.50
2022-11-05T08:49:15.769Z,75.46
2022-11-05T08:51:48.008Z,75.50
2022-11-05T08:54:19.745Z,75.54
2022-11-05T08:56:51.536Z,75.59
2022-11-05T08:59:23.161Z,75.67
2022-11-05T09:01:54.827Z,75.66
2022-11-05T09:04:26.534Z,75.67
2022-11-05T09:06:58.228Z,75.75
2022-11-05T09:09:29.902Z,75.85
2022-11-05T09:12:17.151Z,76.06
2022-11-05T09:14:49.142Z,75.98
2022-11-05T09:17:22.818Z,76.06
2022-11-05T09:19:54.457Z,76.22
2022-11-05T09:22:26.532Z,76.23
2022-11-05T09:24:58.213Z,76.39
2022-11-05T09:27:29.851Z,76.44
2022-11-05T09:30:01.638Z,76.43
2022-11-05T09:32:34.726Z,76.36
2022-11-05T09:35:07.573Z,76.29
2022-11-05T09:37:40.117Z,76.31
2022-11-05T09:40:18.666Z,76.15
2022-11-05T09:42:52.909Z,76.33
2022-11-05T09:45:28.143Z,76.23
2022-11-05T09:48:04.269Z,76.25
2022-11-05T09:50:40.556Z,76.36
2022-11-05T09:53:18.271Z,76.32
2022-11-05T09:55:52.861Z,76.41
2022-11-05T09:58:40.948Z,76.37
2022-11-05T10:01:18.440Z,76.48
2022-11-05T10:03:56.831Z,76.52
2022-11-05T10:06:29.853Z,76.46
2022-11-05T10:09:08.350Z,76.38
2022-11-05T10:11:48.035Z,76.38
2022-11-05T10:14:25.569Z,76.27
2022-11-05T10:17:01.898Z,76.22
2022-11-05T10:19:47.944Z,76.32
2022-11-05T10:22:21.616Z,76.28
2022-11-05T10:24:54.567Z,76.18
2022-11-05T10:27:30.233Z,76.16
2022-11-05T10:30:03.199Z,76.12
2022-11-05T10:32:39.749Z,76.09
2022-11-05T10:35:18.629Z,75.97
2022-11-05T10:37:53.541Z,75.99
2022-11-05T10:40:37.116Z,75.93
2022-11-05T10:43:15.786Z,76.02
2022-11-05T10:45:57.638Z,76.04
2022-11-05T10:48:46.782Z,76.06
2022-11-05T10:51:19.736Z,76.16
2022-11-05T10:54:01.916Z,76.09
2022-11-05T10:56:38.325Z,76.03
2022-11-05T10:59:27.017Z,76.16
2022-11-05T11:02:05.618Z,76.05
2022-11-05T11:04:38.196Z,76.02
2022-11-05T11:07:24.354Z,76.02
2022-11-05T11:09:56.778Z,75.99
2022-11-05T11:12:36.848Z,75.94
2022-11-05T11:15:24.116Z,75.98
2022-11-05T11:17:54.304Z,76.10
2022-11-05T11:20:29.872Z,76.18
2022-11-05T11:23:12.212Z,76.23
2022-11-05T11:25:51.597Z,76.26
2022-11-05T11:28:26.877Z,76.32
2022-11-05T11:31:07.762Z,76.32
2022-11-05T11:33:41.394Z,76.34
2022-11-05T11:36:17.426Z,76.26
2022-11-05T11:38:49.193Z,76.26
2022-11-05T11:41:27.704Z,76.23
2022-11-05T11:44:05.984Z,76.34
2022-11-05T11:46:38.429Z,76.43
2022-11-05T11:49:34.422Z,76.44
2022-11-05T11:52:15.019Z,76.55
2022-11-05T11:54:47.066Z,76.67
2022-11-05T11:57:26.085Z,76.70
2022-11-05T12:00:09.163Z,76.68
2022-11-05T12:03:02.313Z,76.66
2022-11-05T12:05:45.041Z,76.57
2022-11-05T12:08:33.050Z,76.68
2022-11-05T12:11:13.680Z,76.63
2022-11-05T12:14:09.866Z,76.57
2022-11-05T12:17:05.044Z,76.37
2022-11-05T12:19:57.418Z,76.42
2022-11-05T12:22:44.726Z,76.38
2022-11-05T12:25:29.252Z,76.29
2022-11-05T12:28:24.240Z,76.22
2022-11-05T12:31:03.213Z,76.11
2022-11-05T12:33:47.212Z,76.09
2022-11-05T12:36:31.514Z,76.04
2022-11-05T12:39:14.873Z,75.91
2022-11-05T12:41:55.169Z,75.91
2022-11-05T12:44:39.868Z,75.88
2022-11-05T12:47:25.644Z,75.79
2022-11-05T12:50:12.609Z,75.79
2022-11-05T12:53:05.931Z,75.80
2022-11-05T12:55:47.073Z,75.85
2022-11-05T12:58:25.104Z,75.80
2022-11-05T13:01:02.440Z,75.57
2022-11-05T13:03:42.361Z,75.77
2022-11-05T13:06:17.173Z,75.73
2022-11-05T13:08:56.306Z,75.49
2022-11-05T13:11:35.094Z,75.27
2022-11-05T13:14:14.458Z,75.08
2022-11-05T13:16:50.399Z,74.94
2022-11-05T13:19:26.227Z,74.88
2022-11-05T13:22:07.981Z,74.75
2022-11-05T13:24:47.400Z,74.72
2022-11-05T13:27:40.651Z,74.41
2022-11-05T13:30:16.609Z,74.24
2022-11-05T13:32:54.868Z,74.02
2022-11-05T13:35:32.107Z,73.82
2022-11-05T13:38:27.502Z,73.85
2022-11-05T13:41:15.385Z,73.65
2022-11-05T13:44:02.408Z,73.66
2022-11-05T13:46:52.806Z,73.57
2022-11-05T13:49:53.073Z,73.51
2022-11-05T13:52:57.510Z,73.44
2022-11-05T13:56:01.855Z,73.41
2022-11-05T13:58:49.974Z,73.43
2022-11-05T14:01:37.054Z,73.40
2022-11-05T14:04:15.583Z,73.33
2022-11-05T14:06:47.710Z,73.31
2022-11-05T14:09:25.730Z,73.20
2022-11-05T14:12:00.278Z,73.22
2022-11-05T14:14:44.209Z,73.13
2022-11-05T14:17:27.794Z,72.99
2022-11-05T14:20:30.700Z,72.94
2022-11-05T14:23:30.926Z,72.79
2022-11-05T14:26:17.379Z,72.84
2022-11-05T14:29:07.197Z,72.76
2022-11-05T14:32:08.877Z,72.84
2022-11-05T14:34:48.986Z,72.81
2022-11-05T14:37:33.549Z,72.79
2022-11-05T14:40:31.893Z,72.79
2022-11-05T14:43:07.070Z,72.76
2022-11-05T14:45:42.164Z,72.68
2022-11-05T14:48:32.830Z,72.69
2022-11-05T14:51:17.964Z,72.63
2022-11-05T14:53:50.309Z,72.53
2022-11-05T14:56:22.233Z,72.55
2022-11-05T14:59:33.324Z,72.42
2022-11-05T15:02:12.803Z,72.44
2022-11-05T15:04:45.753Z,72.44
2022-11-05T15:07:37.408Z,72.29
2022-11-05T15:10:16.917Z,72.31
2022-11-05T15:12:53.118Z,72.23
2022-11-05T15:15:28.749Z,72.25
2022-11-05T15:18:05.595Z,72.33
2022-11-05T15:20:42.624Z,72.29
2022-11-05T15:23:17.970Z,72.34
2022-11-05T15:26:02.490Z,72.28
2022-11-05T15:28:38.362Z,72.27
2022-11-05T15:31:27.186Z,72.17
2022-11-05T15:34:18.964Z,72.18
2022-11-05T15:36:57.241Z,72.09
2022-11-05T15:39:40.491Z,72.08
2022-11-05T15:42:17.817Z,72.06
2022-11-05T15:44:51.596Z,72.04
2022-11-05T15:47:25.707Z,72.05
2022-11-05T15:49:59.826Z,72.03
2022-11-05T15:52:37.160Z,72.01
2022-11-05T15:55:23.660Z,72.01
2022-11-05T15:58:00.680Z,71.91
2022-11-05T16:00:34.546Z,71.92
2022-11-05T16:03:13.401Z,71.93
2022-11-05T16:05:48.341Z,71.86
2022-11-05T16:08:22.888Z,71.83
2022-11-05T16:10:56.842Z,71.74
2022-11-05T16:13:36.271Z,71.66
2022-11-05T16:16:24.799Z,71.68
2022-11-05T16:18:56.705Z,71.58
2022-11-05T16:21:28.406Z,71.64
2022-11-05T16:24:01.786Z,71.60
2022-11-05T16:27:01.686Z,71.61
2022-11-05T16:29:32.480Z,71.63
2022-11-05T16:32:04.479Z,71.62
2022-11-05T16:34:40.088Z,71.65
2022-11-05T16:37:15.633Z,71.68
2022-11-05T16:39:47.978Z,71.70
2022-11-05T16:42:41.402Z,71.68
2022-11-05T16:45:16.613Z,71.75
2022-11-05T16:47:49.128Z,71.89
2022-11-05T16:50:24.455Z,71.87
2022-11-05T16:52:56.696Z,71.99
2022-11-05T16:55:28.711Z,72.19
2022-11-05T16:58:00.726Z,72.14
2022-11-05T17:00:32.509Z,72.36
2022-11-05T17:03:04.302Z,72.42
2022-11-05T17:05:36.081Z,72.46
2022-11-05T17:08:09.099Z,72.53
2022-11-05T17:10:41.773Z,72.66
2022-11-05T17:13:16.107Z,72.77
2022-11-05T17:15:50.953Z,72.75
2022-11-05T17:18:22.716Z,72.83
2022-11-05T17:20:56.500Z,72.88
2022-11-05T17:23:29.927Z,72.91
2022-11-05T17:26:05.433Z,72.93
2022-11-05T17:28:37.844Z,72.94
2022-11-05T17:31:13.479Z,72.95
2022-11-05T17:33:45.846Z,72.92
2022-11-05T17:36:18.498Z,72.91
2022-11-05T17:38:50.259Z,72.97
2022-11-05T17:41:24.002Z,72.92
2022-11-05T17:43:56.626Z,72.93
2022-11-05T17:46:28.323Z,72.93
2022-11-05T17:49:00.142Z,72.91
2022-11-05T17:51:32.873Z,72.85
2022-11-05T17:54:05.174Z,72.92
2022-11-05T17:56:44.493Z,72.87
2022-11-05T17:59:16.737Z,72.85
2022-11-05T18:01:50.821Z,72.87
2022-11-05T18:04:22.585Z,72.78
2022-11-05T18:06:54.300Z,72.72
2022-11-05T18:09:26.145Z,72.78
2022-11-05T18:11:57.970Z,72.80
2022-11-05T18:14:29.741Z,72.81
2022-11-05T18:17:01.630Z,72.91
2022-11-05T18:19:33.542Z,72.80
2022-11-05T18:22:05.270Z,72.92
2022-11-05T18:24:44.898Z,72.92
2022-11-05T18:27:16.596Z,72.91
2022-11-05T18:29:48.358Z,72.93
2022-11-05T18:32:20.046Z,72.98
2022-11-05T18:34:51.801Z,72.97
2022-11-05T18:37:23.486Z,72.99
2022-11-05T18:39:55.833Z,73.00
2022-11-05T18:42:27.626Z,72.82
2022-11-05T18:44:59.354Z,72.86
2022-11-05T18:47:33.180Z,72.92
2022-11-05T18:50:03.913Z,73.03
2022-11-05T18:52:35.557Z,73.02
2022-11-05T18:55:09.186Z,73.04
2022-11-05T18:57:40.971Z,73.04
2022-11-05T19:00:15.016Z,73.05
2022-11-05T19:02:46.889Z,73.13
2022-11-05T19:05:33.972Z,73.18
2022-11-05T19:08:05.991Z,73.08
2022-11-05T19:10:40.715Z,73.15
2022-11-05T19:13:14.247Z,73.26
2022-11-05T19:15:46.261Z,73.29
2022-11-05T19:18:17.948Z,73.23
2022-11-05T19:20:49.638Z,73.27
2022-11-05T19:23:21.480Z,73.23
2022-11-05T19:25:53.119Z,73.26
2022-11-05T19:28:24.770Z,73.29
2022-11-05T19:30:56.462Z,73.27
2022-11-05T19:33:28.513Z,73.34
2022-11-05T19:36:00.582Z,73.34
2022-11-05T19:38:34.686Z,73.42
2022-11-05T19:41:08.997Z,73.39
2022-11-05T19:43:42.110Z,73.46
2022-11-05T19:46:16.196Z,73.46
2022-11-05T19:48:48.760Z,73.49
2022-11-05T19:51:22.780Z,73.52
2022-11-05T19:53:56.109Z,73.54
2022-11-05T19:56:29.860Z,73.62
2022-11-05T19:59:03.974Z,73.61
2022-11-05T20:01:37.335Z,73.58
2022-11-05T20:04:12.030Z,73.65
2022-11-05T20:06:43.946Z,73.66
2022-11-05T20:09:23.483Z,73.59
2022-11-05T20:11:57.290Z,73.62
2022-11-05T20:14:29.784Z,73.74
2022-11-05T20:17:01.530Z,73.66
2022-11-05T20:19:33.773Z,73.78
2022-11-05T20:22:05.608Z,73.79
2022-11-05T20:24:37.494Z,73.83
2022-11-05T20:27:09.770Z,73.77
2022-11-05T20:29:41.933Z,73.80
2022-11-05T20:32:14.519Z,73.80
2022-11-05T20:34:46.553Z,73.81
2022-11-05T20:37:18.467Z,73.73
2022-11-05T20:39:50.158Z,73.72
2022-11-05T20:42:21.970Z,73.81
2022-11-05T20:44:53.813Z,73.69
2022-11-05T20:47:25.620Z,73.75
2022-11-05T20:49:58.961Z,73.78
2022-11-05T20:52:30.728Z,73.74
2022-11-05T20:55:04.462Z,73.80
2022-11-05T20:57:34.661Z,73.80
2022-11-05T21:00:08.702Z,73.94
2022-11-05T21:02:41.884Z,73.87
2022-11-05T21:05:13.817Z,73.81
2022-11-05T21:07:45.504Z,73.89
2022-11-05T21:10:17.097Z,73.78
2022-11-05T21:12:48.741Z,73.85
2022-11-05T21:15:23.153Z,73.79
2022-11-05T21:17:54.899Z,73.81
2022-11-05T21:20:26.702Z,73.85
2022-11-05T21:22:58.373Z,73.91
2022-11-05T21:25:30.060Z,73.86
2022-11-05T21:28:01.735Z,73.95
2022-11-05T21:30:34.006Z,74.04
2022-11-05T21:33:06.475Z,73.97
2022-11-05T21:35:43.816Z,74.06
2022-11-05T21:38:17.446Z,74.11
2022-11-05T21:40:49.606Z,74.06
2022-11-05T21:43:21.403Z,74.06
2022-11-05T21:45:53.000Z,74.19
2022-11-05T21:48:24.621Z,74.10
2022-11-05T21:51:15.017Z,74.10
2022-11-05T21:54:04.788Z,74.13
2022-11-05T21:56:54.137Z,74.12
2022-11-05T21:59:44.566Z,74.18
2022-11-05T22:02:18.077Z,74.18
2022-11-05T22:04:51.514Z,74.20
2022-11-05T22:07:27.259Z,74.21
2022-11-05T22:10:00.014Z,74.18
2022-11-05T22:12:31.912Z,74.14
2022-11-05T22:15:03.569Z,74.09
2022-11-05T22:17:35.381Z,74.15
2022-11-05T22:20:08.984Z,74.13
2022-11-05T22:22:40.717Z,74.06
2022-11-05T22:25:13.127Z,74.09
2022-11-05T22:27:45.041Z,74.02
2022-11-05T22:30:17.323Z,73.99
2022-11-05T22:32:49.014Z,74.03
2022-11-05T22:35:20.834Z,74.03
2022-11-05T22:37:52.550Z,74.01
2022-11-05T22:40:24.351Z,73.98
2022-11-05T22:42:56.345Z,74.07
2022-11-05T22:45:28.162Z,74.02
2022-11-05T22:48:02.612Z,74.03
2022-11-05T22:50:38.185Z,74.03
2022-11-05T22:53:09.986Z,74.08
2022-11-05T22:55:43.053Z,74.10
2022-11-05T22:58:15.845Z,74.08
2022-11-05T23:00:47.523Z,74.15
2022-11-05T23:03:19.402Z,74.18
2022-11-05T23:05:59.515Z,74.15
2022-11-05T23:08:49.908Z,74.23
2022-11-05T23:11:39.138Z,74.30
2022-11-05T23:14:12.970Z,74.33
2022-11-05T23:17:00.966Z,74.38
2022-11-05T23:19:59.091Z,74.53
2022-11-05T23:22:50.505Z,74.31
2022-11-05T23:25:23.970Z,74.54
2022-11-05T23:27:57.162Z,74.58
2022-11-05T23:30:30.072Z,74.66
2022-11-05T23:33:01.769Z,74.66
2022-11-05T23:35:53.502Z,74.70
2022-11-05T23:38:38.581Z,74.85
2022-11-05T23:41:28.909Z,74.90
2022-11-05T23:44:18.339Z,74.94
2022-11-05T23:47:07.540Z,74.97
2022-11-05T23:49:39.269Z,74.97
2022-11-05T23:52:11.088Z,74.94
2022-11-05T23:54:43.058Z,74.91
2022-11-05T23:57:15.730Z,75.03
2022-11-05T23:59:47.375Z,75.04
